createdAt,value
2022-08-03T00:00:26.182Z,3.60
2022-08-03T00:02:53.214Z,3.87
2022-08-03T00:05:20.208Z,3.30
2022-08-03T00:07:47.049Z,3.53
2022-08-03T00:10:17.114Z,4.20
2022-08-03T00:12:44.306Z,3.80
2022-08-03T00:15:16.480Z,3.80
2022-08-03T00:17:52.394Z,3.97
2022-08-03T00:20:21.788Z,3.70
2022-08-03T00:22:49.337Z,3.83
2022-08-03T00:25:16.765Z,3.60
2022-08-03T00:27:43.609Z,3.53
2022-08-03T00:30:10.890Z,3.90
2022-08-03T00:32:38.743Z,3.80
2022-08-03T00:35:18.266Z,3.67
2022-08-03T00:37:59.543Z,3.67
2022-08-03T00:40:26.816Z,4.07
2022-08-03T00:43:01.982Z,4.00
2022-08-03T00:45:34.168Z,4.27
2022-08-03T00:48:02.212Z,3.87
2022-08-03T00:50:30.885Z,3.83
2022-08-03T00:52:59.519Z,4.00
2022-08-03T00:55:26.761Z,3.77
2022-08-03T00:57:54.188Z,3.90
2022-08-03T01:00:23.099Z,4.07
2022-08-03T01:02:50.823Z,3.90
2022-08-03T01:05:18.123Z,4.00
2022-08-03T01:07:53.592Z,4.00
2022-08-03T01:10:40.068Z,3.67
2022-08-03T01:14:01.462Z,3.80
2022-08-03T01:16:36.778Z,4.07
2022-08-03T01:19:22.189Z,4.40
2022-08-03T01:22:04.306Z,4.30
2022-08-03T01:24:49.556Z,3.97
2022-08-03T01:27:23.148Z,4.00
2022-08-03T01:30:10.120Z,4.17
2022-08-03T01:33:12.301Z,4.00
2022-08-03T01:35:42.238Z,4.23
2022-08-03T01:38:15.603Z,3.80
2022-08-03T01:40:45.321Z,3.67
2022-08-03T01:44:26.629Z,3.90
2022-08-03T01:46:04.713Z,4.10
2022-08-03T01:48:32.362Z,4.47
2022-08-03T01:51:00.518Z,4.93
2022-08-03T01:53:28.348Z,4.40
2022-08-03T01:55:57.412Z,4.40
2022-08-03T01:58:25.158Z,4.40
2022-08-03T02:00:53.110Z,4.20
2022-08-03T02:03:22.165Z,4.53
2022-08-03T02:05:57.191Z,4.20
2022-08-03T02:08:33.781Z,4.30
2022-08-03T02:11:02.202Z,4.20
2022-08-03T02:13:30.400Z,3.97
2022-08-03T02:15:58.408Z,3.93
2022-08-03T02:18:26.371Z,3.97
2022-08-03T02:20:53.599Z,4.60
2022-08-03T02:23:20.918Z,4.43
2022-08-03T02:25:57.651Z,4.07
2022-08-03T02:28:35.923Z,4.03
2022-08-03T02:31:07.090Z,4.00
2022-08-03T02:33:38.931Z,4.40
2022-08-03T02:36:08.522Z,4.17
2022-08-03T02:38:40.607Z,4.63
2022-08-03T02:41:17.553Z,4.10
2022-08-03T02:44:06.696Z,4.20
2022-08-03T02:46:38.456Z,3.97
2022-08-03T02:49:49.472Z,4.43
2022-08-03T02:51:54.365Z,4.50
2022-08-03T02:54:24.218Z,4.20
2022-08-03T02:56:54.145Z,4.00
2022-08-03T02:59:21.987Z,4.50
2022-08-03T03:01:49.674Z,4.50
2022-08-03T03:04:17.250Z,4.23
2022-08-03T03:06:49.218Z,4.13
2022-08-03T03:09:17.431Z,4.57
2022-08-03T03:11:44.782Z,4.70
2022-08-03T03:14:13.413Z,4.27
2022-08-03T03:16:41.919Z,4.10
2022-08-03T03:19:13.090Z,4.00
2022-08-03T03:21:40.370Z,4.53
2022-08-03T03:24:09.629Z,4.67
2022-08-03T03:26:39.444Z,4.33
2022-08-03T03:29:09.723Z,4.13
2022-08-03T03:31:37.256Z,4.30
2022-08-03T03:34:05.141Z,4.67
2022-08-03T03:36:33.681Z,4.37
2022-08-03T03:39:15.984Z,4.97
2022-08-03T03:41:43.872Z,4.60
2022-08-03T03:44:10.897Z,4.63
2022-08-03T03:46:39.407Z,4.90
2022-08-03T03:49:10.106Z,4.63
2022-08-03T03:51:37.022Z,4.53
2022-08-03T03:54:06.962Z,4.67
2022-08-03T03:56:33.979Z,4.53
2022-08-03T03:59:00.862Z,4.87
2022-08-03T04:01:27.804Z,4.80
2022-08-03T04:03:54.653Z,4.97
2022-08-03T04:06:40.159Z,4.93
2022-08-03T04:09:27.240Z,5.27
2022-08-03T04:11:58.658Z,4.90
2022-08-03T04:14:35.971Z,4.50
2022-08-03T04:17:05.701Z,4.73
2022-08-03T04:19:35.729Z,5.10
2022-08-03T04:22:10.682Z,4.90
2022-08-03T04:25:02.867Z,5.17
2022-08-03T04:27:36.600Z,5.17
2022-08-03T04:30:05.772Z,4.93
2022-08-03T04:32:35.711Z,5.23
2022-08-03T04:35:02.902Z,5.30
2022-08-03T04:37:40.289Z,4.70
2022-08-03T04:40:10.973Z,5.00
2022-08-03T04:42:39.526Z,5.07
2022-08-03T04:45:08.042Z,4.80
2022-08-03T04:47:35.802Z,4.97
2022-08-03T04:50:08.074Z,5.20
2022-08-03T04:52:37.434Z,4.97
2022-08-03T04:55:04.695Z,4.80
2022-08-03T04:57:31.634Z,5.40
2022-08-03T05:00:02.963Z,4.87
2022-08-03T05:02:31.414Z,4.73
2022-08-03T05:04:58.528Z,4.93
2022-08-03T05:07:25.573Z,5.20
2022-08-03T05:10:01.510Z,4.90
2022-08-03T05:12:32.689Z,4.97
2022-08-03T05:15:00.759Z,5.13
2022-08-03T05:17:28.482Z,5.23
2022-08-03T05:19:55.625Z,4.80
2022-08-03T05:22:23.405Z,4.80
2022-08-03T05:24:50.505Z,4.77
2022-08-03T05:27:20.327Z,4.37
2022-08-03T05:29:51.010Z,4.60
2022-08-03T05:32:18.811Z,4.80
2022-08-03T05:34:46.352Z,4.30
2022-08-03T05:37:13.387Z,4.40
2022-08-03T05:39:40.342Z,4.30
2022-08-03T05:42:07.356Z,3.83
2022-08-03T05:44:34.339Z,4.33
2022-08-03T05:47:01.346Z,4.20
2022-08-03T05:49:28.272Z,4.17
2022-08-03T05:52:00.122Z,3.67
2022-08-03T05:54:55.920Z,3.47
2022-08-03T05:57:25.540Z,3.00
2022-08-03T05:59:53.995Z,3.67
2022-08-03T06:02:26.747Z,3.50
2022-08-03T06:04:54.308Z,3.40
2022-08-03T06:07:21.186Z,3.10
2022-08-03T06:10:34.581Z,3.03
2022-08-03T06:12:37.701Z,2.67
2022-08-03T06:15:05.422Z,2.87
2022-08-03T06:17:37.619Z,3.03
2022-08-03T06:20:06.058Z,3.30
2022-08-03T06:22:32.919Z,2.80
2022-08-03T06:25:04.266Z,2.90
2022-08-03T06:27:37.224Z,3.07
2022-08-03T06:30:05.554Z,3.03
2022-08-03T06:32:33.683Z,2.97
2022-08-03T06:35:01.097Z,3.10
2022-08-03T06:37:28.806Z,3.37
2022-08-03T06:39:55.742Z,4.07
2022-08-03T06:42:22.770Z,3.00
2022-08-03T06:44:49.846Z,2.97
2022-08-03T06:47:17.222Z,2.60
2022-08-03T06:49:44.141Z,2.50
2022-08-03T06:52:37.936Z,2.77
2022-08-03T06:55:06.917Z,2.60
2022-08-03T06:57:33.772Z,2.90
2022-08-03T07:00:08.343Z,3.20
2022-08-03T07:02:40.035Z,2.50
2022-08-03T07:05:07.998Z,2.70
2022-08-03T07:07:36.199Z,2.87
2022-08-03T07:10:04.827Z,2.47
2022-08-03T07:12:32.464Z,2.80
2022-08-03T07:15:02.563Z,2.50
2022-08-03T07:17:32.031Z,2.60
2022-08-03T07:20:00.082Z,2.70
2022-08-03T07:22:27.631Z,2.60
2022-08-03T07:24:54.815Z,2.80
2022-08-03T07:27:21.860Z,2.90
2022-08-03T07:29:48.822Z,2.60
2022-08-03T07:32:15.946Z,2.40
2022-08-03T07:34:42.908Z,2.70
2022-08-03T07:37:09.788Z,2.60
2022-08-03T07:39:36.646Z,2.67
2022-08-03T07:42:04.138Z,2.50
2022-08-03T07:44:31.002Z,2.43
2022-08-03T07:46:57.966Z,2.90
2022-08-03T07:49:25.227Z,2.60
2022-08-03T07:52:12.096Z,2.30
2022-08-03T07:54:39.038Z,2.80
2022-08-03T07:57:05.990Z,2.53
2022-08-03T07:59:56.799Z,2.47
2022-08-03T08:02:21.957Z,2.63
2022-08-03T08:04:48.829Z,2.50
2022-08-03T08:07:15.750Z,2.63
2022-08-03T08:09:42.746Z,2.63
2022-08-03T08:12:15.225Z,2.60
2022-08-03T08:14:45.744Z,2.60
2022-08-03T08:17:13.647Z,2.87
2022-08-03T08:19:42.783Z,2.60
2022-08-03T08:22:19.725Z,2.80
2022-08-03T08:24:57.871Z,2.60
2022-08-03T08:27:25.319Z,2.50
2022-08-03T08:29:53.091Z,2.50
2022-08-03T08:32:23.737Z,3.00
2022-08-03T08:34:50.985Z,2.50
2022-08-03T08:37:17.901Z,2.50
2022-08-03T08:39:44.723Z,2.37
2022-08-03T08:42:11.744Z,2.53
2022-08-03T08:44:39.277Z,2.50
2022-08-03T08:47:08.123Z,2.40
2022-08-03T08:49:38.699Z,2.50
2022-08-03T08:52:22.097Z,2.47
2022-08-03T08:55:04.928Z,2.67
2022-08-03T08:57:43.183Z,3.37
2022-08-03T09:00:14.900Z,2.50
2022-08-03T09:02:43.302Z,2.37
2022-08-03T09:05:15.263Z,2.23
2022-08-03T09:07:43.390Z,2.53
2022-08-03T09:10:13.595Z,2.43
2022-08-03T09:12:46.038Z,2.40
2022-08-03T09:15:32.478Z,2.70
2022-08-03T09:18:04.137Z,2.10
2022-08-03T09:20:36.741Z,2.53
2022-08-03T09:23:51.559Z,2.67
2022-08-03T09:26:00.020Z,2.43
2022-08-03T09:28:56.556Z,2.47
2022-08-03T09:31:35.911Z,2.60
2022-08-03T09:34:07.851Z,2.37
2022-08-03T09:36:49.436Z,2.60
2022-08-03T09:39:40.759Z,2.57
2022-08-03T09:42:15.420Z,2.60
2022-08-03T09:44:45.174Z,2.40
2022-08-03T09:47:14.734Z,2.67
2022-08-03T09:49:42.841Z,2.40
2022-08-03T09:52:38.736Z,2.50
2022-08-03T09:56:01.747Z,2.50
2022-08-03T09:58:07.099Z,2.60
2022-08-03T10:00:52.610Z,2.37
2022-08-03T10:03:19.926Z,2.37
2022-08-03T10:05:46.774Z,2.90
2022-08-03T10:08:18.465Z,2.37
2022-08-03T10:10:47.416Z,2.23
2022-08-03T10:13:15.766Z,2.80
2022-08-03T10:16:23.117Z,2.13
2022-08-03T10:18:29.592Z,2.73
2022-08-03T10:21:03.174Z,2.53
2022-08-03T10:23:34.659Z,2.40
2022-08-03T10:26:04.418Z,2.37
2022-08-03T10:28:40.366Z,2.30
2022-08-03T10:31:13.003Z,2.13
2022-08-03T10:33:50.292Z,2.27
2022-08-03T10:36:23.779Z,2.30
2022-08-03T10:38:53.112Z,2.60
2022-08-03T10:41:21.752Z,2.17
2022-08-03T10:44:09.853Z,2.40
2022-08-03T10:46:45.029Z,2.30
2022-08-03T10:49:19.043Z,2.20
2022-08-03T10:52:01.256Z,1.90
2022-08-03T10:55:07.705Z,2.00
2022-08-03T10:57:49.812Z,2.10
2022-08-03T11:00:19.408Z,2.10
2022-08-03T11:03:06.599Z,2.03
2022-08-03T11:05:38.793Z,2.27
2022-08-03T11:08:30.360Z,2.30
2022-08-03T11:11:00.102Z,2.40
2022-08-03T11:13:33.440Z,2.30
2022-08-03T11:16:04.903Z,2.17
2022-08-03T11:18:33.562Z,2.27
2022-08-03T11:21:00.922Z,2.33
2022-08-03T11:24:04.989Z,2.30
2022-08-03T11:26:32.873Z,2.50
2022-08-03T11:29:29.650Z,2.53
2022-08-03T11:31:57.317Z,2.37
2022-08-03T11:34:24.907Z,2.60
2022-08-03T11:37:27.231Z,2.20
2022-08-03T11:39:57.138Z,2.60
2022-08-03T11:42:24.219Z,2.50
2022-08-03T11:44:56.637Z,2.30
2022-08-03T11:47:29.003Z,2.50
2022-08-03T11:50:01.872Z,2.17
2022-08-03T11:52:35.791Z,2.30
2022-08-03T11:55:08.352Z,2.40
2022-08-03T11:59:01.644Z,2.30
2022-08-03T12:00:31.411Z,2.40
2022-08-03T12:03:03.074Z,2.30
2022-08-03T12:05:42.019Z,2.47
2022-08-03T12:08:29.325Z,2.40
2022-08-03T12:10:58.140Z,2.20
2022-08-03T12:14:44.586Z,2.30
2022-08-03T12:16:20.538Z,2.00
2022-08-03T12:19:01.203Z,2.50
2022-08-03T12:21:29.164Z,2.33
2022-08-03T12:24:04.720Z,2.30
2022-08-03T12:26:57.213Z,2.40
2022-08-03T12:29:26.337Z,2.20
2022-08-03T12:31:53.228Z,2.17
2022-08-03T12:34:20.032Z,2.30
2022-08-03T12:36:56.414Z,2.53
2022-08-03T12:39:25.495Z,2.27
2022-08-03T12:41:56.672Z,2.10
2022-08-03T12:44:34.775Z,2.40
2022-08-03T12:47:06.724Z,2.40
2022-08-03T12:49:50.675Z,2.10
2022-08-03T12:52:19.489Z,2.30
2022-08-03T12:54:57.141Z,2.10
2022-08-03T12:57:24.403Z,2.30
2022-08-03T12:59:55.505Z,1.90
2022-08-03T13:02:24.763Z,2.10
2022-08-03T13:04:53.914Z,1.90
2022-08-03T13:07:22.582Z,2.10
2022-08-03T13:09:54.492Z,2.07
2022-08-03T13:12:26.912Z,2.10
2022-08-03T13:14:57.442Z,2.00
2022-08-03T13:17:25.573Z,2.20
2022-08-03T13:19:53.521Z,2.30
2022-08-03T13:22:25.977Z,1.97
2022-08-03T13:24:57.694Z,2.10
2022-08-03T13:28:04.014Z,2.67
2022-08-03T13:30:13.124Z,2.30
2022-08-03T13:32:40.514Z,2.30
2022-08-03T13:35:09.079Z,2.33
2022-08-03T13:37:37.263Z,2.60
2022-08-03T13:40:07.137Z,2.40
2022-08-03T13:42:35.836Z,2.40
2022-08-03T13:45:04.260Z,2.30
2022-08-03T13:47:31.383Z,2.50
2022-08-03T13:50:01.695Z,2.30
2022-08-03T13:52:36.576Z,2.30
2022-08-03T13:55:05.961Z,2.20
2022-08-03T13:58:04.186Z,2.00
2022-08-03T14:00:27.497Z,2.20
2022-08-03T14:03:02.792Z,2.17
2022-08-03T14:05:31.882Z,2.50
2022-08-03T14:08:04.947Z,2.20
2022-08-03T14:10:33.986Z,2.27
2022-08-03T14:13:00.920Z,2.17
2022-08-03T14:15:28.705Z,2.20
2022-08-03T14:17:56.469Z,2.10
2022-08-03T14:20:36.947Z,2.10
2022-08-03T14:23:07.022Z,2.30
2022-08-03T14:25:43.470Z,2.20
2022-08-03T14:28:18.611Z,2.00
2022-08-03T14:30:45.727Z,2.20
2022-08-03T14:33:12.525Z,2.10
2022-08-03T14:35:39.339Z,2.20
2022-08-03T14:38:06.627Z,2.23
2022-08-03T14:40:33.689Z,2.00
2022-08-03T14:43:00.537Z,2.33
2022-08-03T14:45:27.625Z,2.40
2022-08-03T14:50:32.674Z,2.50
2022-08-03T14:50:46.785Z,2.60
2022-08-03T14:53:17.150Z,2.47
2022-08-03T14:55:50.649Z,2.47
2022-08-03T14:58:22.437Z,2.37
2022-08-03T15:00:51.550Z,2.33
2022-08-03T15:03:25.655Z,2.40
2022-08-03T15:05:53.858Z,2.20
2022-08-03T15:08:21.670Z,2.30
2022-08-03T15:10:49.324Z,2.33
2022-08-03T15:13:17.192Z,2.43
2022-08-03T15:15:44.144Z,2.50
2022-08-03T15:18:11.381Z,2.23
2022-08-03T15:20:46.990Z,2.53
2022-08-03T15:23:15.921Z,2.20
2022-08-03T15:26:03.289Z,2.40
2022-08-03T15:28:32.098Z,2.40
2022-08-03T15:30:59.078Z,2.27
2022-08-03T15:33:26.006Z,2.57
2022-08-03T15:35:53.352Z,2.43
2022-08-03T15:38:22.924Z,2.37
2022-08-03T15:40:56.066Z,2.37
2022-08-03T15:43:24.119Z,2.20
2022-08-03T15:46:12.865Z,2.37
2022-08-03T15:48:38.376Z,2.50
2022-08-03T15:51:05.624Z,2.50
2022-08-03T15:53:33.553Z,2.70
2022-08-03T15:56:00.857Z,2.57
2022-08-03T15:59:03.986Z,2.50
2022-08-03T16:01:19.803Z,2.47
2022-08-03T16:03:47.160Z,2.67
2022-08-03T16:06:14.181Z,2.70
2022-08-03T16:08:41.310Z,2.50
2022-08-03T16:11:08.230Z,2.47
2022-08-03T16:14:05.516Z,2.30
2022-08-03T16:16:21.893Z,2.50
2022-08-03T16:18:48.671Z,2.47
2022-08-03T16:21:19.531Z,2.67
2022-08-03T16:23:50.042Z,2.53
2022-08-03T16:26:18.153Z,2.63
2022-08-03T16:28:44.949Z,2.77
2022-08-03T16:31:11.745Z,2.73
2022-08-03T16:33:38.601Z,2.67
2022-08-03T16:36:05.561Z,2.40
2022-08-03T16:38:32.416Z,2.80
2022-08-03T16:40:59.580Z,2.57
2022-08-03T16:43:26.504Z,2.70
2022-08-03T16:45:53.332Z,2.60
2022-08-03T16:48:20.299Z,2.70
2022-08-03T16:50:47.380Z,2.90
2022-08-03T16:53:17.081Z,2.53
2022-08-03T16:55:52.359Z,2.73
2022-08-03T16:58:34.532Z,2.70
2022-08-03T17:01:21.636Z,4.10
2022-08-03T17:04:01.165Z,3.27
2022-08-03T17:06:36.121Z,2.90
2022-08-03T17:09:09.807Z,2.60
2022-08-03T17:11:46.514Z,2.80
2022-08-03T17:14:14.794Z,2.87
2022-08-03T17:16:52.734Z,2.60
2022-08-03T17:19:25.875Z,2.80
2022-08-03T17:22:08.784Z,2.70
2022-08-03T17:24:41.069Z,3.10
2022-08-03T17:28:41.338Z,2.80
2022-08-03T17:30:11.815Z,2.60
2022-08-03T17:32:56.996Z,2.60
2022-08-03T17:35:36.866Z,2.50
2022-08-03T17:38:10.504Z,2.30
2022-08-03T17:40:48.139Z,2.70
2022-08-03T17:44:14.034Z,2.43
2022-08-03T17:46:07.221Z,2.60
2022-08-03T17:51:31.155Z,2.43
2022-08-03T17:54:18.067Z,2.70
2022-08-03T17:57:21.909Z,2.33
2022-08-03T18:00:24.848Z,2.30
2022-08-03T18:03:15.824Z,3.00
2022-08-03T18:06:11.468Z,2.47
2022-08-03T18:08:52.080Z,2.60
2022-08-03T18:11:24.420Z,2.73
2022-08-03T18:14:19.181Z,2.57
2022-08-03T18:17:00.551Z,2.47
2022-08-03T18:20:03.507Z,2.90
2022-08-03T18:22:20.407Z,2.97
2022-08-03T18:24:50.009Z,3.03
2022-08-03T18:27:17.109Z,3.20
2022-08-03T18:29:46.946Z,3.80
2022-08-03T18:32:17.012Z,3.50
2022-08-03T18:34:53.306Z,3.73
2022-08-03T18:37:25.593Z,4.80
2022-08-03T18:39:58.258Z,7.90
2022-08-03T18:42:27.144Z,13.00
2022-08-03T18:44:57.566Z,15.00
2022-08-03T18:47:51.770Z,12.90
2022-08-03T18:50:27.993Z,10.83
2022-08-03T18:53:02.549Z,9.97
2022-08-03T18:55:35.495Z,7.83
2022-08-03T18:58:18.645Z,5.77
2022-08-03T19:01:01.169Z,5.13
2022-08-03T19:03:42.833Z,4.57
2022-08-03T19:06:19.653Z,4.63
2022-08-03T19:09:05.156Z,4.67
2022-08-03T19:12:14.066Z,4.87
2022-08-03T19:14:42.444Z,5.13
2022-08-03T19:17:10.832Z,5.97
2022-08-03T19:19:44.208Z,6.57
2022-08-03T19:22:15.919Z,11.83
2022-08-03T19:24:46.204Z,11.20
2022-08-03T19:27:14.146Z,10.70
2022-08-03T19:29:58.036Z,9.73
2022-08-03T19:32:32.217Z,10.03
2022-08-03T19:35:00.830Z,9.87
2022-08-03T19:37:38.479Z,7.60
2022-08-03T19:40:10.406Z,7.57
2022-08-03T19:42:44.560Z,8.37
2022-08-03T19:45:17.043Z,8.33
2022-08-03T19:47:51.358Z,10.43
2022-08-03T19:50:20.369Z,12.83
2022-08-03T19:52:49.563Z,14.13
2022-08-03T19:55:17.802Z,13.30
2022-08-03T19:57:49.041Z,10.07
2022-08-03T20:00:26.051Z,10.47
2022-08-03T20:02:53.989Z,10.10
2022-08-03T20:05:21.026Z,8.30
2022-08-03T20:07:50.422Z,8.50
2022-08-03T20:10:19.324Z,8.53
2022-08-03T20:12:48.487Z,6.87
2022-08-03T20:15:18.305Z,4.10
2022-08-03T20:17:59.108Z,3.50
2022-08-03T20:20:32.788Z,3.60
2022-08-03T20:23:06.994Z,4.57
2022-08-03T20:25:48.806Z,3.90
2022-08-03T20:28:51.091Z,3.70
2022-08-03T20:31:23.837Z,3.70
2022-08-03T20:34:00.176Z,4.20
2022-08-03T20:36:27.078Z,4.00
2022-08-03T20:38:57.614Z,3.90
2022-08-03T20:41:25.082Z,3.60
2022-08-03T20:43:51.969Z,3.70
2022-08-03T20:46:29.251Z,3.53
2022-08-03T20:49:01.396Z,3.87
2022-08-03T20:51:49.602Z,3.30
2022-08-03T20:54:30.867Z,3.80
2022-08-03T20:57:04.167Z,3.63
2022-08-03T20:59:50.078Z,3.60
2022-08-03T21:02:30.307Z,3.60
2022-08-03T21:05:10.624Z,3.30
2022-08-03T21:08:05.746Z,3.33
2022-08-03T21:10:35.843Z,3.20
2022-08-03T21:13:04.758Z,2.30
2022-08-03T21:13:19.037Z,3.03
2022-08-03T21:16:11.565Z,3.10
2022-08-03T21:18:48.998Z,3.00
2022-08-03T21:21:18.305Z,3.13
2022-08-03T21:23:49.645Z,2.87
2022-08-03T21:26:25.169Z,3.13
2022-08-03T21:28:54.211Z,3.50
2022-08-03T21:31:25.111Z,2.90
2022-08-03T21:34:02.018Z,3.60
2022-08-03T21:36:30.848Z,3.40
2022-08-03T21:38:58.954Z,3.10
2022-08-03T21:41:27.859Z,3.30
2022-08-03T21:43:54.847Z,3.33
2022-08-03T21:46:22.411Z,3.60
2022-08-03T21:48:56.024Z,3.43
2022-08-03T21:51:25.917Z,3.30
2022-08-03T21:54:03.304Z,3.40
2022-08-03T21:56:41.298Z,3.60
2022-08-03T21:59:13.748Z,3.40
2022-08-03T22:01:42.535Z,3.53
2022-08-03T22:04:11.863Z,3.60
2022-08-03T22:06:42.317Z,3.77
2022-08-03T22:09:09.444Z,3.53
2022-08-03T22:11:37.911Z,3.20
2022-08-03T22:14:05.411Z,3.00
2022-08-03T22:16:32.274Z,3.53
2022-08-03T22:18:59.193Z,3.00
2022-08-03T22:21:36.066Z,3.37
2022-08-03T22:24:06.137Z,3.30
2022-08-03T22:26:39.590Z,3.27
2022-08-03T22:29:08.334Z,3.50
2022-08-03T22:31:58.011Z,3.80
2022-08-03T22:34:26.592Z,4.00
2022-08-03T22:37:00.229Z,3.87
2022-08-03T22:39:29.120Z,3.80
2022-08-03T22:41:59.749Z,4.00
2022-08-03T22:44:27.696Z,4.03
2022-08-03T22:46:55.537Z,4.07
2022-08-03T22:49:22.748Z,3.97
2022-08-03T22:51:51.927Z,4.00
2022-08-03T22:54:19.389Z,3.70
2022-08-03T22:56:47.145Z,4.20
2022-08-03T22:59:40.976Z,3.67
2022-08-03T23:02:20.766Z,3.90
2022-08-03T23:04:56.719Z,3.70
2022-08-03T23:07:31.373Z,3.70
2022-08-03T23:09:59.818Z,3.40
2022-08-03T23:12:29.593Z,3.60
2022-08-03T23:15:01.181Z,3.67
2022-08-03T23:17:31.090Z,3.90
2022-08-03T23:20:05.335Z,3.60
2022-08-03T23:22:35.282Z,3.77
2022-08-03T23:25:04.796Z,3.70
2022-08-03T23:27:35.065Z,3.87
2022-08-03T23:30:02.593Z,4.13
2022-08-03T23:32:31.143Z,4.10
2022-08-03T23:35:23.280Z,4.07
2022-08-03T23:38:21.851Z,3.90
2022-08-03T23:40:51.376Z,3.90
2022-08-03T23:43:51.326Z,3.60
2022-08-03T23:46:08.983Z,3.80
2022-08-03T23:48:36.110Z,3.90
2022-08-03T23:51:09.715Z,4.10
2022-08-03T23:54:01.910Z,4.00
2022-08-03T23:56:41.276Z,4.07
2022-08-03T23:59:29.855Z,3.67
